Time;durP1;ratioP1;P1;durP2;ratioP2;P2;SDS_P1;SDS_P2;PMS_P1;PMS_P2;Temp;Humidity;BMP_temperature;BMP_pressure;BME280_temperature;BME280_humidity;BME280_pressure;Samples;Min_cycle;Max_cycle;Signal;HPM_P1;HPM_P2
2021/04/30 00:00:10;;;;;;;15.18;12.70;;;9.70;71.50;;;;;;2095462;28;20025;-70
2021/04/30 00:01:11;;;;;;;15.95;12.32;;;9.70;71.70;;;;;;2089101;28;20036;-70
2021/04/30 00:02:12;;;;;;;16.58;12.10;;;9.70;71.40;;;;;;2088973;28;20017;-70
2021/04/30 00:03:12;;;;;;;15.32;12.80;;;9.70;72.20;;;;;;2089579;28;20095;-70
2021/04/30 00:04:13;;;;;;;15.07;12.68;;;9.60;72.60;;;;;;2089608;28;20029;-70
2021/04/30 00:05:14;;;;;;;15.02;12.93;;;9.60;72.50;;;;;;2089574;28;20037;-70
2021/04/30 00:06:14;;;;;;;15.45;12.57;;;9.60;72.20;;;;;;2089685;28;20025;-71
2021/04/30 00:07:15;;;;;;;13.82;12.30;;;9.60;72.40;;;;;;2089007;28;20064;-70
2021/04/30 00:08:16;;;;;;;14.90;12.60;;;9.60;72.80;;;;;;2089098;28;20039;-70
2021/04/30 00:09:17;;;;;;;15.27;13.13;;;9.50;72.90;;;;;;2089263;28;20578;-69
2021/04/30 00:10:18;;;;;;;17.08;13.52;;;9.50;73.40;;;;;;2089647;28;20052;-70
2021/04/30 00:11:19;;;;;;;16.00;13.40;;;9.50;73.40;;;;;;2089656;28;20035;-70
2021/04/30 00:12:20;;;;;;;19.40;13.20;;;9.40;73.80;;;;;;2089551;28;20025;-70
2021/04/30 00:13:20;;;;;;;16.20;13.30;;;9.40;73.80;;;;;;2089761;28;20049;-72
2021/04/30 00:14:21;;;;;;;16.25;12.98;;;9.40;72.90;;;;;;2089455;28;20473;-69
2021/04/30 00:15:22;;;;;;;17.35;13.30;;;9.40;73.40;;;;;;2089685;28;20021;-70
2021/04/30 00:16:23;;;;;;;16.02;13.07;;;9.30;74.30;;;;;;2094068;28;20099;-71
2021/04/30 00:17:23;;;;;;;15.48;12.88;;;9.30;75.40;;;;;;2092418;28;20029;-71
2021/04/30 00:18:24;;;;;;;14.48;12.60;;;9.30;75.20;;;;;;2080620;28;20029;-71
2021/04/30 00:19:25;;;;;;;16.60;13.98;;;9.30;75.20;;;;;;2080269;28;20025;-71
2021/04/30 00:20:26;;;;;;;15.75;13.05;;;9.30;74.70;;;;;;2088995;28;20063;-70
2021/04/30 00:21:28;;;;;;;15.05;12.65;;;9.20;74.80;;;;;;2088970;28;20102;-70
2021/04/30 00:22:29;;;;;;;16.58;13.85;;;9.20;75.00;;;;;;2089518;28;20024;-70
2021/04/30 00:23:32;;;;;;;15.27;13.25;;;9.20;74.10;;;;;;2088896;28;20492;-70
2021/04/30 00:24:33;;;;;;;15.73;13.20;;;9.20;74.20;;;;;;2089044;28;20029;-70
2021/04/30 00:25:33;;;;;;;15.02;13.43;;;9.20;73.80;;;;;;2089633;28;20039;-70
2021/04/30 00:26:34;;;;;;;14.95;12.90;;;9.20;74.60;;;;;;2089747;28;20074;-70
2021/04/30 00:27:35;;;;;;;19.45;13.80;;;9.20;75.30;;;;;;2087295;28;20055;-69
2021/04/30 00:28:36;;;;;;;17.10;14.20;;;9.10;75.10;;;;;;2086944;28;20433;-70
2021/04/30 00:29:36;;;;;;;16.33;13.40;;;9.10;76.40;;;;;;2088467;28;20152;-70
2021/04/30 00:30:38;;;;;;;15.05;13.43;;;9.10;75.40;;;;;;2089570;28;20659;-71
2021/04/30 00:31:40;;;;;;;15.45;13.38;;;9.10;75.80;;;;;;2089442;28;20021;-71
2021/04/30 00:32:40;;;;;;;18.30;14.13;;;9.10;76.40;;;;;;2089513;28;20112;-70
2021/04/30 00:33:41;;;;;;;17.13;14.20;;;9.10;76.50;;;;;;2088978;28;20060;-70
2021/04/30 00:34:42;;;;;;;16.02;13.50;;;9.10;76.20;;;;;;2087736;28;20017;-70
2021/04/30 00:35:43;;;;;;;16.50;13.40;;;9.00;76.60;;;;;;2090010;28;20029;-70
2021/04/30 00:36:44;;;;;;;17.63;14.63;;;9.00;75.50;;;;;;2089365;28;20052;-70
2021/04/30 00:37:44;;;;;;;16.25;14.25;;;9.00;75.60;;;;;;2089611;28;20805;-70
2021/04/30 00:38:45;;;;;;;16.65;14.32;;;9.00;76.40;;;;;;2089530;28;20384;-70
2021/04/30 00:39:46;;;;;;;18.85;14.68;;;8.90;76.30;;;;;;2089197;28;20864;-70
2021/04/30 00:40:47;;;;;;;19.70;15.27;;;8.90;76.20;;;;;;2089339;28;20017;-70
2021/04/30 00:41:48;;;;;;;18.83;15.05;;;8.90;75.40;;;;;;2089440;28;20025;-70
2021/04/30 00:42:55;;;;;;;17.67;14.68;;;8.80;74.90;;;;;;2089277;28;20048;-70
2021/04/30 00:43:57;;;;;;;20.08;14.55;;;8.80;75.00;;;;;;2089439;28;20519;-71
2021/04/30 00:44:59;;;;;;;19.42;15.10;;;8.80;75.10;;;;;;2089546;28;20029;-71
2021/04/30 00:45:59;;;;;;;17.33;14.90;;;8.70;75.10;;;;;;2089495;28;20681;-71
2021/04/30 00:47:00;;;;;;;20.65;15.02;;;8.70;75.60;;;;;;2089544;28;20043;-71
2021/04/30 00:48:01;;;;;;;17.90;14.43;;;8.70;75.10;;;;;;2089534;28;20032;-71
2021/04/30 00:49:04;;;;;;;18.08;14.98;;;8.70;74.10;;;;;;2089060;28;20100;-71
2021/04/30 00:50:07;;;;;;;18.58;15.43;;;8.70;73.70;;;;;;2089467;28;20029;-70
2021/04/30 00:51:07;;;;;;;19.73;15.60;;;8.70;73.90;;;;;;2091069;28;20554;-70
2021/04/30 00:52:08;;;;;;;19.90;15.50;;;8.70;74.30;;;;;;2088673;28;20033;-70
2021/04/30 00:53:08;;;;;;;18.20;15.02;;;8.60;74.70;;;;;;2086026;28;20037;-71
2021/04/30 00:54:09;;;;;;;18.63;14.82;;;8.60;74.90;;;;;;2080481;28;20048;-70
2021/04/30 00:55:12;;;;;;;17.75;15.40;;;8.60;74.70;;;;;;2088852;28;20033;-70
2021/04/30 00:56:13;;;;;;;20.92;16.27;;;8.60;74.50;;;;;;2088626;28;20419;-70
2021/04/30 00:57:14;;;;;;;20.75;15.95;;;8.60;74.30;;;;;;2088801;28;20029;-70
2021/04/30 00:58:16;;;;;;;18.25;16.17;;;8.60;74.60;;;;;;2084472;28;20017;-70
2021/04/30 00:59:17;;;;;;;19.48;16.15;;;8.60;74.20;;;;;;2088131;28;20817;-70
2021/04/30 01:00:18;;;;;;;21.42;16.10;;;8.60;73.90;;;;;;2084262;28;20072;-70
2021/04/30 01:01:19;;;;;;;21.42;15.85;;;8.50;73.80;;;;;;2092723;28;20390;-71
2021/04/30 01:02:20;;;;;;;19.58;15.50;;;8.50;73.80;;;;;;2089255;28;20116;-70
2021/04/30 01:03:21;;;;;;;20.92;15.82;;;8.50;74.00;;;;;;2089097;28;20025;-70
2021/04/30 01:04:21;;;;;;;19.88;15.57;;;8.50;74.20;;;;;;2093547;28;20468;-70
2021/04/30 01:05:23;;;;;;;17.50;14.73;;;8.50;74.50;;;;;;2092454;28;20042;-70
2021/04/30 01:06:24;;;;;;;18.00;15.15;;;8.50;74.10;;;;;;2088517;28;20463;-70
2021/04/30 01:07:24;;;;;;;18.73;15.73;;;8.50;74.60;;;;;;2088425;28;20036;-71
2021/04/30 01:08:25;;;;;;;20.88;15.68;;;8.50;74.60;;;;;;2088727;28;20064;-70
2021/04/30 01:09:25;;;;;;;21.15;16.05;;;8.50;74.30;;;;;;2088331;28;20028;-70
2021/04/30 01:10:26;;;;;;;20.70;15.98;;;8.40;74.30;;;;;;2088725;28;20020;-70
2021/04/30 01:11:27;;;;;;;20.52;16.58;;;8.40;74.60;;;;;;2089202;28;20029;-70
2021/04/30 01:12:28;;;;;;;20.15;16.15;;;8.40;74.90;;;;;;2089154;28;20017;-69
2021/04/30 01:13:29;;;;;;;20.80;16.08;;;8.40;75.20;;;;;;2088805;28;20447;-69
2021/04/30 01:14:30;;;;;;;20.50;17.08;;;8.40;75.20;;;;;;2088875;28;20028;-70
2021/04/30 01:15:31;;;;;;;21.25;17.20;;;8.30;75.30;;;;;;2088676;28;20028;-69
2021/04/30 01:16:31;;;;;;;21.95;17.40;;;8.30;75.50;;;;;;2089576;28;20020;-70
2021/04/30 01:17:34;;;;;;;20.30;16.58;;;8.30;75.60;;;;;;2089699;28;20031;-70
2021/04/30 01:18:44;;;;;;;21.80;17.25;;;8.30;75.70;;;;;;2090178;28;20519;-71
2021/04/30 01:19:45;;;;;;;24.27;17.08;;;8.30;75.10;;;;;;2089517;28;20408;-71
2021/04/30 01:20:46;;;;;;;21.13;16.77;;;8.30;75.30;;;;;;2088869;28;20033;-71
2021/04/30 01:21:51;;;;;;;20.38;16.80;;;8.30;75.50;;;;;;2088921;28;20037;-71
2021/04/30 01:22:54;;;;;;;21.38;16.73;;;8.20;75.70;;;;;;2090040;28;20063;-70
2021/04/30 01:23:55;;;;;;;21.50;16.55;;;8.20;75.60;;;;;;2089676;28;20031;-71
2021/04/30 01:24:55;;;;;;;21.88;17.83;;;8.20;75.50;;;;;;2089035;28;20495;-70
2021/04/30 01:25:56;;;;;;;24.05;17.13;;;8.20;75.70;;;;;;2089188;28;20043;-70
2021/04/30 01:26:57;;;;;;;23.30;18.05;;;8.20;75.80;;;;;;2088920;28;20577;-70
2021/04/30 01:27:57;;;;;;;21.13;17.48;;;8.20;76.00;;;;;;2084160;28;20040;-71
2021/04/30 01:28:58;;;;;;;20.67;17.00;;;8.10;76.10;;;;;;2079835;28;20025;-70
2021/04/30 01:29:59;;;;;;;23.70;17.25;;;8.10;76.50;;;;;;2080557;28;20024;-71
2021/04/30 01:30:59;;;;;;;20.25;17.05;;;8.10;76.80;;;;;;2088627;28;20052;-71
2021/04/30 01:32:00;;;;;;;21.17;17.70;;;8.10;77.00;;;;;;2080331;28;20033;-70
2021/04/30 01:33:02;;;;;;;23.52;17.92;;;8.10;77.30;;;;;;2088822;28;20586;-71
2021/04/30 01:34:03;;;;;;;22.23;17.60;;;8.10;77.00;;;;;;2089307;28;20025;-71
2021/04/30 01:35:06;;;;;;;22.83;17.40;;;8.10;77.10;;;;;;2089274;28;20558;-70
2021/04/30 01:36:08;;;;;;;22.90;18.00;;;8.00;77.20;;;;;;2089297;28;20032;-71
2021/04/30 01:37:08;;;;;;;20.48;17.13;;;8.00;77.30;;;;;;2089158;28;20075;-70
2021/04/30 01:38:09;;;;;;;22.27;17.50;;;8.00;77.40;;;;;;2089452;28;20094;-71
2021/04/30 01:39:12;;;;;;;22.42;18.48;;;8.00;77.40;;;;;;2089160;28;20090;-72
2021/04/30 01:40:15;;;;;;;23.88;18.17;;;8.00;77.30;;;;;;2089316;28;20033;-71
2021/04/30 01:41:24;;;;;;;23.05;17.85;;;8.00;77.50;;;;;;2089883;28;20103;-71
2021/04/30 01:42:25;;;;;;;22.63;18.27;;;8.00;77.30;;;;;;2090809;28;20017;-71
2021/04/30 01:43:26;;;;;;;23.23;18.85;;;8.00;77.30;;;;;;2089668;28;20032;-71
2021/04/30 01:44:26;;;;;;;25.63;18.88;;;8.00;77.70;;;;;;2087063;28;20040;-70
2021/04/30 01:45:30;;;;;;;22.38;18.52;;;8.00;77.20;;;;;;2093922;28;20021;-70
2021/04/30 01:46:31;;;;;;;24.00;19.23;;;8.00;77.50;;;;;;2091155;28;20017;-70
2021/04/30 01:47:31;;;;;;;24.60;19.25;;;8.00;77.90;;;;;;2090553;28;20449;-70
2021/04/30 01:48:34;;;;;;;25.05;19.13;;;8.00;77.70;;;;;;2089303;28;20028;-70
2021/04/30 01:49:34;;;;;;;23.38;18.55;;;8.00;77.60;;;;;;2088780;28;20052;-70
2021/04/30 01:50:35;;;;;;;24.55;19.05;;;7.90;77.80;;;;;;2089165;28;20384;-70
2021/04/30 01:51:36;;;;;;;26.48;19.35;;;7.90;77.90;;;;;;2088585;28;20062;-71
2021/04/30 01:52:36;;;;;;;25.40;19.05;;;7.90;78.00;;;;;;2080054;28;20108;-70
2021/04/30 01:53:38;;;;;;;25.88;19.08;;;7.90;77.90;;;;;;2088310;28;20028;-71
2021/04/30 01:54:47;;;;;;;24.52;18.83;;;7.90;77.70;;;;;;2088929;28;20021;-70
2021/04/30 01:55:48;;;;;;;24.90;19.13;;;7.90;77.80;;;;;;2088998;28;20028;-70
2021/04/30 01:56:50;;;;;;;23.75;19.13;;;7.90;77.50;;;;;;2088998;28;20064;-68
2021/04/30 01:57:50;;;;;;;25.30;19.55;;;7.90;77.60;;;;;;2081750;28;20026;-69
2021/04/30 01:58:51;;;;;;;25.17;19.58;;;7.80;77.60;;;;;;2089145;28;20074;-68
2021/04/30 01:59:51;;;;;;;25.48;19.38;;;7.80;77.80;;;;;;2088744;28;20021;-68
2021/04/30 02:00:54;;;;;;;23.65;19.33;;;7.90;77.60;;;;;;2089009;28;20442;-70
2021/04/30 02:01:55;;;;;;;25.35;19.40;;;7.90;77.60;;;;;;2089612;28;20025;-68
2021/04/30 02:02:58;;;;;;;23.48;18.75;;;7.80;77.40;;;;;;2096735;28;20040;-68
2021/04/30 02:03:59;;;;;;;23.73;19.13;;;7.90;77.60;;;;;;2089090;28;20032;-70
2021/04/30 02:04:59;;;;;;;26.90;19.48;;;7.90;77.20;;;;;;2088993;28;20260;-68
2021/04/30 02:06:01;;;;;;;23.85;19.02;;;7.90;77.50;;;;;;2088787;28;20048;-71
2021/04/30 02:07:01;;;;;;;26.40;19.02;;;7.80;77.80;;;;;;2088863;28;20388;-69
2021/04/30 02:08:07;;;;;;;23.48;18.92;;;7.80;77.60;;;;;;2088943;28;20025;-69
2021/04/30 02:09:08;;;;;;;25.33;19.58;;;7.80;77.50;;;;;;2087877;28;20830;-70
2021/04/30 02:10:15;;;;;;;25.17;19.10;;;7.80;77.40;;;;;;2088345;28;20029;-69
2021/04/30 02:11:15;;;;;;;23.35;18.60;;;7.80;77.80;;;;;;2088303;28;20017;-69
2021/04/30 02:12:18;;;;;;;25.13;18.75;;;7.70;77.70;;;;;;2088458;28;20074;-69
2021/04/30 02:13:20;;;;;;;24.90;19.73;;;7.70;77.80;;;;;;2088284;28;20121;-69
2021/04/30 02:14:20;;;;;;;26.30;19.13;;;7.70;77.80;;;;;;2088159;28;20021;-68
2021/04/30 02:15:24;;;;;;;23.13;19.05;;;7.70;77.40;;;;;;2088528;28;20051;-70
2021/04/30 02:16:25;;;;;;;23.15;18.52;;;7.70;77.90;;;;;;2088532;28;20017;-71
2021/04/30 02:17:30;;;;;;;25.08;18.70;;;7.70;78.00;;;;;;2088713;28;20075;-69
2021/04/30 02:18:30;;;;;;;26.42;19.08;;;7.70;78.20;;;;;;2088937;28;20028;-68
2021/04/30 02:19:31;;;;;;;25.17;19.67;;;7.70;78.30;;;;;;2088453;28;20053;-70
2021/04/30 02:20:32;;;;;;;23.05;18.80;;;7.70;78.10;;;;;;2088741;28;20384;-69
2021/04/30 02:21:34;;;;;;;25.13;18.70;;;7.70;78.00;;;;;;2088774;28;20059;-69
2021/04/30 02:22:36;;;;;;;24.77;19.00;;;7.60;77.60;;;;;;2088975;28;20707;-69
2021/04/30 02:23:37;;;;;;;24.17;18.92;;;7.70;77.60;;;;;;2088288;28;20057;-69
2021/04/30 02:24:37;;;;;;;22.83;18.75;;;7.60;77.70;;;;;;2088507;28;20028;-70
2021/04/30 02:25:39;;;;;;;23.80;18.20;;;7.60;77.90;;;;;;2089723;28;20064;-69
2021/04/30 02:26:39;;;;;;;25.17;18.85;;;7.60;77.40;;;;;;2089766;28;20028;-71
2021/04/30 02:27:41;;;;;;;24.00;18.17;;;7.60;77.80;;;;;;2089454;28;20032;-70
2021/04/30 02:28:45;;;;;;;23.10;18.23;;;7.60;77.60;;;;;;2088833;28;20032;-71
2021/04/30 02:29:45;;;;;;;25.00;19.05;;;7.60;77.10;;;;;;2096561;28;20051;-71
2021/04/30 02:30:46;;;;;;;24.65;18.83;;;7.60;77.10;;;;;;2088622;28;20021;-68
2021/04/30 02:31:47;;;;;;;24.77;18.38;;;7.60;77.00;;;;;;2088237;28;20115;-69
2021/04/30 02:32:48;;;;;;;25.27;18.70;;;7.60;76.90;;;;;;2088851;28;20075;-67
2021/04/30 02:33:49;;;;;;;23.30;18.73;;;7.60;76.80;;;;;;2088985;28;20052;-69
2021/04/30 02:34:52;;;;;;;22.70;18.00;;;7.60;76.30;;;;;;2088674;28;20460;-72
2021/04/30 02:35:52;;;;;;;22.65;17.77;;;7.60;76.30;;;;;;2080950;28;20029;-68
2021/04/30 02:36:53;;;;;;;23.20;17.90;;;7.60;76.00;;;;;;2088682;28;20031;-68
2021/04/30 02:37:54;;;;;;;23.88;18.25;;;7.60;76.30;;;;;;2088968;28;20384;-70
2021/04/30 02:38:55;;;;;;;21.80;17.75;;;7.60;76.90;;;;;;2088830;28;20500;-67
2021/04/30 02:39:56;;;;;;;22.73;17.38;;;7.60;76.40;;;;;;2088433;28;20025;-67
2021/04/30 02:40:57;;;;;;;22.83;17.60;;;7.60;77.40;;;;;;2088136;28;20033;-68
2021/04/30 02:41:58;;;;;;;22.42;17.40;;;7.60;76.70;;;;;;2088444;28;20115;-68
2021/04/30 02:43:02;;;;;;;22.63;17.75;;;7.50;76.70;;;;;;2088740;28;20040;-69
2021/04/30 02:44:03;;;;;;;24.40;18.40;;;7.50;76.60;;;;;;2088740;28;20037;-69
2021/04/30 02:45:05;;;;;;;22.92;18.33;;;7.50;76.30;;;;;;2088875;28;20515;-68
2021/04/30 02:46:05;;;;;;;22.52;17.42;;;7.50;76.50;;;;;;2088670;28;20036;-67
2021/04/30 02:47:06;;;;;;;22.38;17.67;;;7.60;75.70;;;;;;2088603;28;20511;-69
2021/04/30 02:48:15;;;;;;;23.83;17.88;;;7.60;75.90;;;;;;2087924;28;20051;-68
2021/04/30 02:49:23;;;;;;;23.17;17.67;;;7.60;76.20;;;;;;2087687;28;20457;-69
2021/04/30 02:50:28;;;;;;;22.33;17.80;;;7.60;76.20;;;;;;2088573;28;20111;-69
2021/04/30 02:51:28;;;;;;;23.95;17.55;;;7.60;75.70;;;;;;2089957;28;20025;-70
2021/04/30 02:52:29;;;;;;;22.13;17.30;;;7.60;76.30;;;;;;2090224;28;20021;-69
2021/04/30 02:53:30;;;;;;;25.60;17.63;;;7.50;76.40;;;;;;2090117;28;20024;-70
2021/04/30 02:54:30;;;;;;;22.15;17.38;;;7.50;75.90;;;;;;2089503;28;20484;-69
2021/04/30 02:55:31;;;;;;;21.33;17.33;;;7.60;75.80;;;;;;2089562;28;20064;-70
2021/04/30 02:56:34;;;;;;;21.48;16.80;;;7.50;76.40;;;;;;2090156;28;20021;-70
2021/04/30 02:57:35;;;;;;;22.83;17.23;;;7.50;76.50;;;;;;2087976;28;20047;-70
2021/04/30 02:58:36;;;;;;;21.85;17.33;;;7.50;76.10;;;;;;2088169;28;20021;-69
2021/04/30 02:59:36;;;;;;;23.55;17.58;;;7.50;76.40;;;;;;2089761;28;20025;-71
2021/04/30 03:00:38;;;;;;;22.17;16.80;;;7.50;76.20;;;;;;2090125;28;20063;-70
2021/04/30 03:01:39;;;;;;;22.15;17.10;;;7.50;76.30;;;;;;2090048;28;20416;-70
2021/04/30 03:02:39;;;;;;;21.17;17.30;;;7.50;76.20;;;;;;2090069;28;20032;-70
2021/04/30 03:03:40;;;;;;;22.85;17.38;;;7.50;76.00;;;;;;2089398;28;20486;-72
2021/04/30 03:04:41;;;;;;;23.05;17.00;;;7.50;75.80;;;;;;2089433;28;20025;-71
2021/04/30 03:05:41;;;;;;;22.67;17.35;;;7.50;75.90;;;;;;2089455;28;20480;-70
2021/04/30 03:06:42;;;;;;;22.60;17.23;;;7.50;75.70;;;;;;2089435;28;20408;-72
2021/04/30 03:07:43;;;;;;;21.90;16.65;;;7.50;75.20;;;;;;2089871;28;20028;-71
2021/04/30 03:08:45;;;;;;;22.15;16.50;;;7.50;75.30;;;;;;2090092;28;20028;-71
2021/04/30 03:09:46;;;;;;;21.38;17.10;;;7.50;75.60;;;;;;2089679;28;20029;-71
2021/04/30 03:10:47;;;;;;;22.73;17.13;;;7.50;75.50;;;;;;2089584;28;20060;-72
2021/04/30 03:11:48;;;;;;;20.80;16.65;;;7.50;75.80;;;;;;2089526;28;20128;-71
2021/04/30 03:12:49;;;;;;;20.98;16.88;;;7.50;76.00;;;;;;2081202;28;20370;-71
2021/04/30 03:13:50;;;;;;;20.77;16.95;;;7.50;75.70;;;;;;2081271;28;20014;-70
2021/04/30 03:14:51;;;;;;;20.83;16.55;;;7.50;75.00;;;;;;2082135;28;20022;-72
2021/04/30 03:15:52;;;;;;;21.55;16.58;;;7.50;75.10;;;;;;2090276;28;20048;-71
2021/04/30 03:16:53;;;;;;;22.45;17.45;;;7.50;75.40;;;;;;2090062;28;20016;-72
2021/04/30 03:17:54;;;;;;;21.65;17.38;;;7.50;75.20;;;;;;2090155;28;20092;-68
2021/04/30 03:18:54;;;;;;;23.98;17.50;;;7.50;75.20;;;;;;2089421;28;20523;-71
2021/04/30 03:19:55;;;;;;;22.42;17.60;;;7.50;75.20;;;;;;2089243;28;20037;-71
2021/04/30 03:20:56;;;;;;;22.75;17.80;;;7.50;75.30;;;;;;2089490;28;20029;-70
2021/04/30 03:21:56;;;;;;;25.77;17.77;;;7.50;75.40;;;;;;2089789;28;20028;-71
2021/04/30 03:22:57;;;;;;;24.08;18.23;;;7.60;75.40;;;;;;2089978;28;20029;-71
2021/04/30 03:23:57;;;;;;;23.00;17.73;;;7.60;75.30;;;;;;2089985;28;20029;-70
2021/04/30 03:24:58;;;;;;;22.50;17.20;;;7.60;75.10;;;;;;2090048;28;20518;-71
2021/04/30 03:26:00;;;;;;;20.95;17.02;;;7.50;75.00;;;;;;2089313;28;20124;-71
2021/04/30 03:27:00;;;;;;;22.90;17.42;;;7.50;74.70;;;;;;2089273;28;20424;-70
2021/04/30 03:28:01;;;;;;;23.95;17.98;;;7.60;75.10;;;;;;2085765;28;20042;-71
2021/04/30 03:29:03;;;;;;;23.38;17.70;;;7.60;74.60;;;;;;2089727;28;20029;-69
2021/04/30 03:30:05;;;;;;;24.52;17.38;;;7.60;74.80;;;;;;2089315;28;20767;-71
2021/04/30 03:31:05;;;;;;;23.10;17.50;;;7.50;74.60;;;;;;2089343;28;20028;-70
2021/04/30 03:32:08;;;;;;;22.38;16.80;;;7.60;74.40;;;;;;2089971;28;20419;-71
2021/04/30 03:33:08;;;;;;;24.90;17.80;;;7.60;74.80;;;;;;2089970;28;20488;-71
2021/04/30 03:34:10;;;;;;;23.65;18.27;;;7.60;75.20;;;;;;2089904;28;20033;-71
2021/04/30 03:35:18;;;;;;;21.75;17.02;;;7.50;74.90;;;;;;2089814;28;20384;-73
2021/04/30 03:36:21;;;;;;;23.33;18.27;;;7.50;75.30;;;;;;2090252;28;20021;-70
2021/04/30 03:37:22;;;;;;;22.52;18.23;;;7.50;75.60;;;;;;2089109;28;20159;-71
2021/04/30 03:38:23;;;;;;;25.45;17.88;;;7.50;75.00;;;;;;2085500;28;20032;-70
2021/04/30 03:39:24;;;;;;;22.08;17.88;;;7.50;75.00;;;;;;2092427;28;20485;-70
2021/04/30 03:40:24;;;;;;;24.73;18.65;;;7.50;75.40;;;;;;2089153;28;20040;-70
2021/04/30 03:41:25;;;;;;;22.80;17.83;;;7.50;75.60;;;;;;2089252;28;20020;-70
2021/04/30 03:42:26;;;;;;;24.33;18.25;;;7.50;75.40;;;;;;2089693;28;20107;-71
2021/04/30 03:43:27;;;;;;;24.45;18.10;;;7.50;75.50;;;;;;2089860;28;20040;-70
2021/04/30 03:44:28;;;;;;;24.33;18.13;;;7.40;75.70;;;;;;2089155;28;20116;-70
2021/04/30 03:45:28;;;;;;;24.05;17.77;;;7.40;75.90;;;;;;2089071;28;20020;-71
2021/04/30 03:46:29;;;;;;;24.35;17.27;;;7.40;76.30;;;;;;2090095;28;20147;-71
2021/04/30 03:47:29;;;;;;;24.25;18.55;;;7.40;76.60;;;;;;2089094;28;20048;-70
2021/04/30 03:48:31;;;;;;;25.05;18.65;;;7.40;76.60;;;;;;2089247;28;20053;-71
2021/04/30 03:49:32;;;;;;;24.25;18.75;;;7.40;76.20;;;;;;2088751;28;20037;-69
2021/04/30 03:50:33;;;;;;;24.98;19.15;;;7.30;76.30;;;;;;2089227;28;20049;-69
2021/04/30 03:51:33;;;;;;;26.17;18.90;;;7.30;76.20;;;;;;2089735;28;20032;-69
2021/04/30 03:52:35;;;;;;;25.65;18.65;;;7.30;76.30;;;;;;2089660;28;20722;-69
2021/04/30 03:53:35;;;;;;;25.45;19.55;;;7.30;76.20;;;;;;2089662;28;20021;-70
2021/04/30 03:54:36;;;;;;;25.10;19.50;;;7.30;76.50;;;;;;2089758;28;20100;-70
2021/04/30 03:55:37;;;;;;;24.33;19.17;;;7.30;76.60;;;;;;2089184;28;20055;-70
2021/04/30 03:56:37;;;;;;;25.00;19.05;;;7.30;76.60;;;;;;2089062;28;20029;-70
2021/04/30 03:57:38;;;;;;;24.90;19.30;;;7.40;76.80;;;;;;2087186;28;20021;-70
2021/04/30 03:58:39;;;;;;;23.98;18.90;;;7.40;76.50;;;;;;2088285;28;20100;-70
2021/04/30 03:59:39;;;;;;;26.48;19.27;;;7.40;76.10;;;;;;2089492;28;20481;-70
2021/04/30 04:00:40;;;;;;;26.52;19.73;;;7.40;76.20;;;;;;2089661;28;20035;-70
2021/04/30 04:01:40;;;;;;;28.17;19.83;;;7.30;76.30;;;;;;2089205;28;20025;-70
2021/04/30 04:02:41;;;;;;;26.20;19.23;;;7.30;76.10;;;;;;2089757;28;20037;-70
2021/04/30 04:03:42;;;;;;;25.33;18.90;;;7.40;76.50;;;;;;2089937;28;20036;-72
2021/04/30 04:04:42;;;;;;;25.73;19.38;;;7.40;76.70;;;;;;2089046;28;20488;-70
2021/04/30 04:05:43;;;;;;;26.52;19.95;;;7.40;76.70;;;;;;2089059;28;20021;-70
2021/04/30 04:06:43;;;;;;;26.38;20.27;;;7.40;76.50;;;;;;2089566;28;20036;-70
2021/04/30 04:07:44;;;;;;;26.27;19.55;;;7.40;76.50;;;;;;2089731;28;20112;-70
2021/04/30 04:08:44;;;;;;;25.95;20.10;;;7.40;76.60;;;;;;2089634;28;20036;-70
2021/04/30 04:09:45;;;;;;;27.20;19.88;;;7.40;76.50;;;;;;2089332;28;20029;-70
2021/04/30 04:10:46;;;;;;;28.52;20.13;;;7.40;75.90;;;;;;2089708;28;20025;-70
2021/04/30 04:11:46;;;;;;;28.92;20.20;;;7.40;76.20;;;;;;2089657;28;20111;-70
2021/04/30 04:12:47;;;;;;;26.33;19.70;;;7.40;76.30;;;;;;2089650;28;20013;-70
2021/04/30 04:13:47;;;;;;;25.85;19.25;;;7.40;76.70;;;;;;2089742;28;20725;-70
2021/04/30 04:14:48;;;;;;;27.23;20.00;;;7.50;76.50;;;;;;2089587;28;20032;-70
2021/04/30 04:15:49;;;;;;;26.38;19.35;;;7.50;76.40;;;;;;2089639;28;20452;-70
2021/04/30 04:16:50;;;;;;;25.98;19.35;;;7.50;75.90;;;;;;2089626;28;20039;-70
2021/04/30 04:17:51;;;;;;;26.13;19.60;;;7.60;76.20;;;;;;2089707;28;20051;-70
2021/04/30 04:18:51;;;;;;;27.88;19.90;;;7.60;75.80;;;;;;2089526;28;20032;-70
2021/04/30 04:19:52;;;;;;;24.70;19.30;;;7.60;75.80;;;;;;2089321;28;20044;-70
2021/04/30 04:20:53;;;;;;;25.42;19.60;;;7.70;76.20;;;;;;2089205;28;20068;-70
2021/04/30 04:21:53;;;;;;;26.15;19.63;;;7.70;75.80;;;;;;2080895;28;20056;-70
2021/04/30 04:22:54;;;;;;;26.08;19.40;;;7.60;75.50;;;;;;2089384;28;20028;-70
2021/04/30 04:23:54;;;;;;;26.48;19.42;;;7.70;75.70;;;;;;2089998;28;20033;-70
2021/04/30 04:24:55;;;;;;;26.67;19.88;;;7.70;75.10;;;;;;2089582;28;20499;-70
2021/04/30 04:25:56;;;;;;;28.30;20.23;;;7.70;74.70;;;;;;2080672;28;20053;-70
2021/04/30 04:26:56;;;;;;;26.35;19.63;;;7.70;74.70;;;;;;2080622;28;20147;-70
2021/04/30 04:27:57;;;;;;;27.65;19.58;;;7.70;74.40;;;;;;2085583;28;20030;-70
2021/04/30 04:28:58;;;;;;;28.27;19.50;;;7.70;74.40;;;;;;2089523;28;20033;-70
2021/04/30 04:29:59;;;;;;;28.42;20.17;;;7.70;74.50;;;;;;2088509;28;20143;-70
2021/04/30 04:30:59;;;;;;;30.02;20.10;;;7.70;74.70;;;;;;2088940;28;20541;-70
2021/04/30 04:32:00;;;;;;;25.52;19.45;;;7.80;75.20;;;;;;2089591;28;20028;-70
2021/04/30 04:33:02;;;;;;;25.98;19.63;;;7.70;74.90;;;;;;2089604;28;20029;-70
2021/04/30 04:34:03;;;;;;;27.95;19.90;;;7.80;74.70;;;;;;2089592;28;20037;-70
2021/04/30 04:35:04;;;;;;;25.92;19.50;;;7.80;74.70;;;;;;2088895;28;20033;-70
2021/04/30 04:36:05;;;;;;;28.77;20.17;;;7.80;75.20;;;;;;2080566;28;20026;-72
2021/04/30 04:37:06;;;;;;;25.88;19.15;;;7.80;75.30;;;;;;2072367;28;20029;-70
2021/04/30 04:38:06;;;;;;;26.13;19.92;;;7.80;74.80;;;;;;2088981;28;20070;-69
2021/04/30 04:39:07;;;;;;;25.88;19.38;;;7.80;74.80;;;;;;2089177;28;20121;-71
2021/04/30 04:40:17;;;;;;;26.50;18.95;;;7.80;74.80;;;;;;2089720;28;20029;-73
2021/04/30 04:41:27;;;;;;;27.30;20.52;;;7.80;74.70;;;;;;2089571;28;20046;-70
2021/04/30 04:42:28;;;;;;;27.52;20.00;;;7.80;74.80;;;;;;2089540;28;20025;-71
2021/04/30 04:43:28;;;;;;;27.35;20.45;;;7.80;74.90;;;;;;2089579;28;20032;-71
2021/04/30 04:44:29;;;;;;;25.92;19.73;;;7.80;75.10;;;;;;2089613;28;20029;-71
2021/04/30 04:45:30;;;;;;;25.10;19.58;;;7.80;75.20;;;;;;2092523;28;20438;-71
2021/04/30 04:46:31;;;;;;;28.48;19.98;;;7.80;75.10;;;;;;2091067;28;20112;-71
2021/04/30 04:47:31;;;;;;;25.70;19.35;;;7.90;75.50;;;;;;2090736;28;20017;-70
2021/04/30 04:48:32;;;;;;;27.65;20.17;;;7.90;74.60;;;;;;2089396;28;20033;-71
2021/04/30 04:49:33;;;;;;;27.80;19.80;;;7.90;74.60;;;;;;2088524;28;20028;-71
2021/04/30 04:50:33;;;;;;;27.02;19.85;;;7.90;74.80;;;;;;2089321;28;20384;-71
2021/04/30 04:51:34;;;;;;;27.98;19.67;;;7.90;74.80;;;;;;2089539;28;20017;-71
2021/04/30 04:52:34;;;;;;;26.70;19.58;;;7.90;75.10;;;;;;2088668;28;20079;-70
2021/04/30 04:53:35;;;;;;;28.58;19.83;;;7.90;75.40;;;;;;2088659;28;20075;-71
2021/04/30 04:54:36;;;;;;;27.48;19.63;;;8.00;74.90;;;;;;2089396;28;20021;-71
2021/04/30 04:55:36;;;;;;;28.15;20.38;;;8.00;75.00;;;;;;2088807;28;20021;-71
2021/04/30 04:56:38;;;;;;;26.42;19.90;;;8.00;74.90;;;;;;2088607;28;20099;-71
2021/04/30 04:57:39;;;;;;;27.08;20.10;;;8.00;74.80;;;;;;2086983;28;20744;-71
2021/04/30 04:58:39;;;;;;;31.80;20.27;;;8.00;75.10;;;;;;2088089;28;20021;-71
2021/04/30 04:59:40;;;;;;;27.10;19.80;;;8.00;74.30;;;;;;2089002;28;20103;-71
2021/04/30 05:00:40;;;;;;;26.40;19.63;;;8.00;74.30;;;;;;2089561;28;20118;-71
2021/04/30 05:01:41;;;;;;;27.45;20.30;;;8.10;74.60;;;;;;2089344;28;20025;-71
2021/04/30 05:02:42;;;;;;;25.83;20.17;;;8.10;74.80;;;;;;2088863;28;20066;-71
2021/04/30 05:03:42;;;;;;;28.45;20.65;;;8.10;74.50;;;;;;2088797;28;20506;-71
2021/04/30 05:04:44;;;;;;;28.13;19.77;;;8.10;73.90;;;;;;2089308;28;20384;-70
2021/04/30 05:05:45;;;;;;;28.15;20.45;;;8.10;74.10;;;;;;2088729;28;20112;-71
2021/04/30 05:06:48;;;;;;;26.05;19.90;;;8.10;74.30;;;;;;2088552;28;20017;-71
2021/04/30 05:07:48;;;;;;;27.45;19.92;;;8.10;74.20;;;;;;2089214;28;20025;-71
2021/04/30 05:08:49;;;;;;;26.23;20.05;;;8.10;73.70;;;;;;2089191;28;20037;-71
2021/04/30 05:09:49;;;;;;;28.27;20.48;;;8.10;74.00;;;;;;2088849;28;20222;-71
2021/04/30 05:10:50;;;;;;;29.85;20.73;;;8.10;73.90;;;;;;2089643;28;20455;-71
2021/04/30 05:11:51;;;;;;;26.00;20.23;;;8.20;74.50;;;;;;2089138;28;20071;-71
2021/04/30 05:12:52;;;;;;;27.88;20.08;;;8.20;74.20;;;;;;2089517;28;20020;-71
2021/04/30 05:13:52;;;;;;;29.48;20.55;;;8.20;73.40;;;;;;2087762;28;20047;-71